Аэропорт: Павлодар. Павлодар

ICAO: UASP

METAR:
2020-06-02 07:30:00
UASP 020730Z 32005MPS 9999 FEW042CB BKN097 26/07 Q1008 R21/0///70 NOSIG RMK QFE745/0994
METAR:
2020-06-02 05:00:00
TAF UASP 020500Z 0206/0215 29005MPS 9999 BKN030CB TEMPO 0206/0210 32005G15MPS 5000 -TSRA BKN020CB